createdAt,value
2023-05-14T00:01:54.494Z,12.89
2023-05-14T00:07:13.953Z,12.85
2023-05-14T00:12:33.650Z,12.78
2023-05-14T00:17:52.683Z,12.73
2023-05-14T00:23:11.783Z,12.69
2023-05-14T00:28:31.341Z,12.65
2023-05-14T00:33:50.706Z,12.62
2023-05-14T00:39:09.535Z,12.55
2023-05-14T00:49:48.419Z,12.45
2023-05-14T00:55:07.277Z,12.38
2023-05-14T01:00:26.989Z,12.35
2023-05-14T01:05:46.405Z,12.31
2023-05-14T01:16:24.892Z,12.2
2023-05-14T01:21:44.396Z,12.14
2023-05-14T01:27:03.707Z,12.1
2023-05-14T01:32:22.784Z,12.04
2023-05-14T01:37:42.278Z,12.01
2023-05-14T01:43:01.966Z,11.98
2023-05-14T01:48:20.819Z,11.94
2023-05-14T01:53:40.259Z,11.88
2023-05-14T01:58:59.999Z,11.85
2023-05-14T02:04:19.720Z,11.85
2023-05-14T02:09:39.259Z,11.83
2023-05-14T02:14:58.942Z,11.81
2023-05-14T02:20:18.455Z,11.78
2023-05-14T02:25:37.441Z,11.75
2023-05-14T02:30:56.643Z,11.75
2023-05-14T02:41:35.787Z,11.7
2023-05-14T02:46:54.839Z,11.7
2023-05-14T02:52:14.322Z,11.69
2023-05-14T02:57:33.991Z,11.67
2023-05-14T03:02:53.468Z,11.63
2023-05-14T03:08:12.926Z,11.61
2023-05-14T03:13:31.750Z,11.59
2023-05-14T03:18:50.974Z,11.59
2023-05-14T03:24:10.029Z,11.54
2023-05-14T03:34:48.994Z,11.5
2023-05-14T03:40:08.744Z,11.47
2023-05-14T03:45:28.180Z,11.46
2023-05-14T03:50:46.967Z,11.43
2023-05-14T03:56:05.835Z,11.43
2023-05-14T04:06:44.377Z,11.41
2023-05-14T04:12:03.884Z,11.39
2023-05-14T04:17:23.032Z,11.37
2023-05-14T04:22:41.636Z,11.34
2023-05-14T04:28:01.165Z,11.34
2023-05-14T04:33:20.778Z,11.36
2023-05-14T04:38:40.384Z,11.33
2023-05-14T04:49:26.902Z,11.36
2023-05-14T04:54:37.096Z,11.39
2023-05-14T04:59:56.591Z,11.39
2023-05-14T05:05:15.552Z,11.4
2023-05-14T05:10:34.992Z,11.41
2023-05-14T05:15:53.817Z,11.44
2023-05-14T05:21:13.056Z,11.44
2023-05-14T05:26:31.745Z,11.44
2023-05-14T05:31:50.566Z,11.49
2023-05-14T05:37:09.942Z,11.51
2023-05-14T05:47:48.618Z,11.6
2023-05-14T05:53:07.758Z,11.67
2023-05-14T05:58:35.912Z,11.69
2023-05-14T06:03:48.340Z,11.75
2023-05-14T06:09:06.008Z,11.84
2023-05-14T06:14:25.553Z,11.91
2023-05-14T06:19:45.038Z,11.97
2023-05-14T06:25:04.049Z,12.02
2023-05-14T06:30:23.541Z,12.08
2023-05-14T06:35:42.413Z,12.17
2023-05-14T06:46:29.594Z,12.34
2023-05-14T06:51:40.231Z,12.39
2023-05-14T06:56:59.787Z,12.48
2023-05-14T07:02:20.035Z,12.6
2023-05-14T07:07:39.044Z,12.68
2023-05-14T07:12:58.273Z,12.79
2023-05-14T07:18:17.399Z,12.83
2023-05-14T07:23:36.836Z,12.93
2023-05-14T07:28:55.942Z,13.06
2023-05-14T07:34:15.407Z,13.19
2023-05-14T07:39:34.250Z,13.28
2023-05-14T07:44:53.148Z,13.36
2023-05-14T07:50:12.502Z,13.43
2023-05-14T07:55:31.566Z,13.58
2023-05-14T08:00:50.847Z,13.73
2023-05-14T08:11:29.951Z,13.92
2023-05-14T08:22:08.678Z,14.17
2023-05-14T08:27:27.988Z,14.28
2023-05-14T08:32:46.906Z,14.38
2023-05-14T08:38:05.615Z,14.48
2023-05-14T08:43:23.862Z,14.59
2023-05-14T08:48:42.994Z,14.68
2023-05-14T08:54:01.831Z,14.72
2023-05-14T08:59:21.170Z,14.8
2023-05-14T09:04:40.362Z,14.89
2023-05-14T09:09:59.554Z,14.96
2023-05-14T09:15:19.031Z,15.08
2023-05-14T09:20:38.435Z,15.17
2023-05-14T09:25:57.197Z,15.22
2023-05-14T09:31:16.126Z,15.31
2023-05-14T09:36:35.090Z,15.36
2023-05-14T09:41:54.517Z,15.41
2023-05-14T09:47:13.912Z,15.46
2023-05-14T09:57:53.060Z,15.53
2023-05-14T10:03:12.053Z,15.55
2023-05-14T10:08:30.846Z,15.58
2023-05-14T10:13:49.993Z,15.67
2023-05-14T10:19:09.567Z,15.72
2023-05-14T10:24:28.535Z,15.77
2023-05-14T10:29:47.712Z,15.82
2023-05-14T10:35:06.814Z,15.85
2023-05-14T10:45:44.663Z,15.88
2023-05-14T10:51:04.401Z,15.85
2023-05-14T10:56:23.044Z,15.87
2023-05-14T11:01:42.399Z,15.88
2023-05-14T11:12:20.798Z,15.95
2023-05-14T11:17:40.130Z,15.99
2023-05-14T11:28:18.061Z,16.04
2023-05-14T11:33:37.750Z,16.04
2023-05-14T11:38:57.119Z,16.12
2023-05-14T11:44:16.754Z,16.18
2023-05-14T11:49:35.519Z,16.23
2023-05-14T11:54:55.120Z,16.29
2023-05-14T12:00:14.663Z,16.33
2023-05-14T12:10:52.642Z,16.49
2023-05-14T12:16:11.350Z,16.51
2023-05-14T12:21:30.462Z,16.53
2023-05-14T12:26:49.664Z,16.65
2023-05-14T12:32:09.137Z,16.7
2023-05-14T12:37:30.603Z,16.81
2023-05-14T12:42:48.119Z,16.9
2023-05-14T12:53:25.556Z,17.07
2023-05-14T12:58:44.694Z,17.14
2023-05-14T13:09:23.399Z,17.23
2023-05-14T13:20:02.373Z,17.32
2023-05-14T13:25:21.166Z,17.41
2023-05-14T13:30:50.285Z,17.44
2023-05-14T13:36:35.565Z,17.48
2023-05-14T13:41:54.439Z,17.6
2023-05-14T13:47:13.973Z,17.65
2023-05-14T13:52:33.200Z,17.87
2023-05-14T13:57:52.322Z,18.09
2023-05-14T14:03:11.637Z,18.24
2023-05-14T14:08:31.023Z,18.39
2023-05-14T14:13:49.738Z,18.57
2023-05-14T14:19:08.851Z,18.52
2023-05-14T14:24:27.568Z,18.53
2023-05-14T14:29:46.407Z,18.53
2023-05-14T14:40:24.817Z,18.64
2023-05-14T14:51:02.478Z,18.67
2023-05-14T14:56:21.217Z,18.59
2023-05-14T15:01:40.581Z,18.56
2023-05-14T15:06:59.826Z,18.61
2023-05-14T15:12:18.842Z,18.64
2023-05-14T15:17:38.324Z,18.73
2023-05-14T15:22:57.836Z,18.73
2023-05-14T15:28:17.514Z,18.73
2023-05-14T15:33:36.804Z,18.74
2023-05-14T15:38:55.621Z,18.73
2023-05-14T15:44:15.064Z,18.77
2023-05-14T15:49:34.732Z,18.64
2023-05-14T15:54:54.080Z,18.59
2023-05-14T16:00:13.605Z,18.59
2023-05-14T16:05:32.100Z,18.45
2023-05-14T16:10:51.042Z,18.45
2023-05-14T16:16:10.587Z,18.42
2023-05-14T16:26:48.495Z,18.35
2023-05-14T16:32:07.760Z,18.29
2023-05-14T16:37:26.916Z,18.26
2023-05-14T16:42:49.113Z,18.2
2023-05-14T16:48:05.775Z,18.16
2023-05-14T16:53:24.904Z,18.1
2023-05-14T16:58:43.984Z,18.02
2023-05-14T17:09:32.773Z,17.89
2023-05-14T17:14:42.294Z,17.84
2023-05-14T17:20:01.822Z,17.78
2023-05-14T17:25:21.345Z,17.71
2023-05-14T17:30:40.686Z,17.7
2023-05-14T17:35:59.540Z,17.62
2023-05-14T17:41:18.457Z,17.54
2023-05-14T17:51:57.103Z,17.37
2023-05-14T17:57:16.252Z,17.32
2023-05-14T18:07:54.627Z,17.2
2023-05-14T18:13:13.748Z,17.14
2023-05-14T18:18:33.007Z,17.11
2023-05-14T18:23:52.257Z,17.06
2023-05-14T18:29:11.105Z,16.96
2023-05-14T18:39:48.873Z,16.86
2023-05-14T18:45:08.331Z,16.79
2023-05-14T18:50:27.285Z,16.71
2023-05-14T18:55:46.106Z,16.62
2023-05-14T19:01:04.955Z,16.56
2023-05-14T19:06:23.663Z,16.49
2023-05-14T19:11:42.621Z,16.41
2023-05-14T19:17:01.455Z,16.35
2023-05-14T19:22:20.841Z,16.25
2023-05-14T19:27:39.718Z,16.16
2023-05-14T19:32:58.707Z,16.08
2023-05-14T19:38:17.824Z,16.01
2023-05-14T19:43:37.380Z,15.91
2023-05-14T19:48:56.222Z,15.85
2023-05-14T19:54:15.609Z,15.78
2023-05-14T19:59:34.421Z,15.72
2023-05-14T20:04:53.550Z,15.67
2023-05-14T20:10:12.931Z,15.61
2023-05-14T20:15:32.604Z,15.55
2023-05-14T20:20:52.310Z,15.51
2023-05-14T20:26:11.651Z,15.47
2023-05-14T20:31:31.233Z,15.37
2023-05-14T20:36:50.152Z,15.33
2023-05-14T20:42:08.970Z,15.28
2023-05-14T20:47:28.753Z,15.27
2023-05-14T20:52:47.780Z,15.22
2023-05-14T21:03:35.537Z,15.1
2023-05-14T21:08:45.117Z,15.04
2023-05-14T21:14:04.366Z,14.99
2023-05-14T21:19:23.721Z,14.94
2023-05-14T21:30:02.641Z,14.83
2023-05-14T21:35:21.648Z,14.76
2023-05-14T21:40:40.506Z,14.72
2023-05-14T21:46:00.055Z,14.65
2023-05-14T21:56:38.051Z,14.59
2023-05-14T22:02:06.668Z,14.53
2023-05-14T22:07:16.689Z,14.45
2023-05-14T22:12:35.673Z,14.41
2023-05-14T22:17:54.619Z,14.36
2023-05-14T22:23:13.965Z,14.29
2023-05-14T22:28:33.538Z,14.24
2023-05-14T22:33:52.609Z,14.15
2023-05-14T22:39:13.427Z,14.11
2023-05-14T22:44:31.176Z,14.08
2023-05-14T22:49:50.572Z,14.01
2023-05-14T22:55:09.372Z,13.92
2023-05-14T23:05:48.177Z,13.82
2023-05-14T23:11:07.467Z,13.78
2023-05-14T23:16:26.540Z,13.71
2023-05-14T23:21:46.109Z,13.63
2023-05-14T23:27:04.979Z,13.58
2023-05-14T23:32:24.106Z,13.55
2023-05-14T23:37:43.197Z,13.48
2023-05-14T23:43:11.524Z,13.4
2023-05-14T23:48:21.907Z,13.36
2023-05-14T23:53:41.481Z,13.28
